sensor_id;sensor_type;location;lat;lon;timestamp;P1;durP1;ratioP1;P2;durP2;ratioP2
47069;SDS011;32822;48.140;7.702;2024-02-15T00:02:02;5.17;;;3.23;;
47069;SDS011;32822;48.140;7.702;2024-02-15T00:04:28;3.43;;;2.50;;
47069;SDS011;32822;48.140;7.702;2024-02-15T00:06:56;8.10;;;2.60;;
47069;SDS011;32822;48.140;7.702;2024-02-15T00:09:24;9.13;;;3.13;;
47069;SDS011;32822;48.140;7.702;2024-02-15T00:11:51;5.80;;;2.80;;
47069;SDS011;32822;48.140;7.702;2024-02-15T00:14:18;3.70;;;2.50;;
47069;SDS011;32822;48.140;7.702;2024-02-15T00:16:45;2.57;;;2.20;;
47069;SDS011;32822;48.140;7.702;2024-02-15T00:19:12;2.97;;;2.53;;
47069;SDS011;32822;48.140;7.702;2024-02-15T00:21:42;2.83;;;2.30;;
47069;SDS011;32822;48.140;7.702;2024-02-15T00:24:09;4.00;;;2.47;;
47069;SDS011;32822;48.140;7.702;2024-02-15T00:26:37;4.17;;;2.63;;
47069;SDS011;32822;48.140;7.702;2024-02-15T00:29:04;2.87;;;2.30;;
47069;SDS011;32822;48.140;7.702;2024-02-15T00:31:31;4.97;;;2.67;;
47069;SDS011;32822;48.140;7.702;2024-02-15T00:33:57;5.03;;;2.40;;
47069;SDS011;32822;48.140;7.702;2024-02-15T00:36:24;3.60;;;2.40;;
47069;SDS011;32822;48.140;7.702;2024-02-15T00:38:51;3.67;;;2.30;;
47069;SDS011;32822;48.140;7.702;2024-02-15T00:41:18;2.60;;;2.20;;
47069;SDS011;32822;48.140;7.702;2024-02-15T00:43:47;4.07;;;2.37;;
47069;SDS011;32822;48.140;7.702;2024-02-15T00:46:15;3.33;;;2.40;;
47069;SDS011;32822;48.140;7.702;2024-02-15T00:48:42;3.67;;;2.27;;
47069;SDS011;32822;48.140;7.702;2024-02-15T00:51:08;2.30;;;2.10;;
47069;SDS011;32822;48.140;7.702;2024-02-15T00:53:35;3.93;;;2.80;;
47069;SDS011;32822;48.140;7.702;2024-02-15T00:56:02;3.53;;;2.20;;
47069;SDS011;32822;48.140;7.702;2024-02-15T00:58:29;5.77;;;2.53;;
47069;SDS011;32822;48.140;7.702;2024-02-15T01:00:58;2.77;;;2.43;;
47069;SDS011;32822;48.140;7.702;2024-02-15T01:03:24;3.83;;;2.47;;
47069;SDS011;32822;48.140;7.702;2024-02-15T01:05:51;3.90;;;2.23;;
47069;SDS011;32822;48.140;7.702;2024-02-15T01:08:18;2.67;;;2.20;;
47069;SDS011;32822;48.140;7.702;2024-02-15T01:10:45;4.60;;;2.10;;
47069;SDS011;32822;48.140;7.702;2024-02-15T01:13:12;5.73;;;3.20;;
47069;SDS011;32822;48.140;7.702;2024-02-15T01:15:38;3.53;;;1.90;;
47069;SDS011;32822;48.140;7.702;2024-02-15T01:18:07;2.90;;;2.17;;
47069;SDS011;32822;48.140;7.702;2024-02-15T01:20:34;2.97;;;2.10;;
47069;SDS011;32822;48.140;7.702;2024-02-15T01:23:01;4.40;;;2.07;;
47069;SDS011;32822;48.140;7.702;2024-02-15T01:25:28;3.53;;;2.40;;
47069;SDS011;32822;48.140;7.702;2024-02-15T01:27:55;3.50;;;2.10;;
47069;SDS011;32822;48.140;7.702;2024-02-15T01:30:21;2.30;;;2.10;;
47069;SDS011;32822;48.140;7.702;2024-02-15T01:32:48;2.63;;;2.03;;
47069;SDS011;32822;48.140;7.702;2024-02-15T01:35:16;4.47;;;2.60;;
47069;SDS011;32822;48.140;7.702;2024-02-15T01:37:43;4.00;;;2.33;;
47069;SDS011;32822;48.140;7.702;2024-02-15T01:40:10;2.97;;;2.37;;
47069;SDS011;32822;48.140;7.702;2024-02-15T01:42:38;4.33;;;2.03;;
47069;SDS011;32822;48.140;7.702;2024-02-15T01:45:05;3.53;;;1.90;;
47069;SDS011;32822;48.140;7.702;2024-02-15T01:47:32;4.20;;;2.37;;
47069;SDS011;32822;48.140;7.702;2024-02-15T01:49:59;3.67;;;2.17;;
47069;SDS011;32822;48.140;7.702;2024-02-15T01:52:27;2.60;;;2.27;;
47069;SDS011;32822;48.140;7.702;2024-02-15T01:54:54;3.20;;;2.60;;
47069;SDS011;32822;48.140;7.702;2024-02-15T01:57:21;2.40;;;2.20;;
47069;SDS011;32822;48.140;7.702;2024-02-15T01:59:49;6.07;;;2.90;;
47069;SDS011;32822;48.140;7.702;2024-02-15T02:02:16;2.90;;;2.40;;
47069;SDS011;32822;48.140;7.702;2024-02-15T02:04:46;2.93;;;2.33;;
47069;SDS011;32822;48.140;7.702;2024-02-15T02:07:13;3.57;;;2.57;;
47069;SDS011;32822;48.140;7.702;2024-02-15T02:09:41;2.90;;;2.60;;
47069;SDS011;32822;48.140;7.702;2024-02-15T02:12:10;4.53;;;3.33;;
47069;SDS011;32822;48.140;7.702;2024-02-15T02:14:37;4.93;;;3.37;;
47069;SDS011;32822;48.140;7.702;2024-02-15T02:17:10;5.00;;;3.00;;
47069;SDS011;32822;48.140;7.702;2024-02-15T02:19:38;4.37;;;2.80;;
47069;SDS011;32822;48.140;7.702;2024-02-15T02:22:05;5.10;;;3.20;;
47069;SDS011;32822;48.140;7.702;2024-02-15T02:24:34;4.20;;;3.57;;
47069;SDS011;32822;48.140;7.702;2024-02-15T02:27:08;4.17;;;3.63;;
47069;SDS011;32822;48.140;7.702;2024-02-15T02:29:36;7.40;;;3.33;;
47069;SDS011;32822;48.140;7.702;2024-02-15T02:32:10;6.90;;;3.70;;
47069;SDS011;32822;48.140;7.702;2024-02-15T02:34:37;4.90;;;3.60;;
47069;SDS011;32822;48.140;7.702;2024-02-15T02:37:05;4.97;;;3.60;;
47069;SDS011;32822;48.140;7.702;2024-02-15T02:39:33;5.30;;;3.80;;
47069;SDS011;32822;48.140;7.702;2024-02-15T02:42:00;6.93;;;3.40;;
47069;SDS011;32822;48.140;7.702;2024-02-15T02:44:28;5.27;;;3.80;;
47069;SDS011;32822;48.140;7.702;2024-02-15T02:46:54;6.57;;;3.90;;
47069;SDS011;32822;48.140;7.702;2024-02-15T02:49:21;4.53;;;3.93;;
47069;SDS011;32822;48.140;7.702;2024-02-15T02:51:48;4.87;;;4.17;;
47069;SDS011;32822;48.140;7.702;2024-02-15T02:54:14;4.67;;;4.07;;
47069;SDS011;32822;48.140;7.702;2024-02-15T02:56:41;4.83;;;4.03;;
47069;SDS011;32822;48.140;7.702;2024-02-15T02:59:08;5.70;;;3.97;;
47069;SDS011;32822;48.140;7.702;2024-02-15T03:01:36;9.13;;;5.13;;
47069;SDS011;32822;48.140;7.702;2024-02-15T03:04:04;8.10;;;5.57;;
47069;SDS011;32822;48.140;7.702;2024-02-15T03:06:31;5.97;;;4.30;;
47069;SDS011;32822;48.140;7.702;2024-02-15T03:08:58;8.63;;;4.20;;
47069;SDS011;32822;48.140;7.702;2024-02-15T03:11:24;4.77;;;3.97;;
47069;SDS011;32822;48.140;7.702;2024-02-15T03:13:51;4.97;;;4.30;;
47069;SDS011;32822;48.140;7.702;2024-02-15T03:16:21;6.57;;;3.97;;
47069;SDS011;32822;48.140;7.702;2024-02-15T03:18:51;4.53;;;3.47;;
47069;SDS011;32822;48.140;7.702;2024-02-15T03:21:18;6.63;;;3.97;;
47069;SDS011;32822;48.140;7.702;2024-02-15T03:23:45;5.13;;;3.77;;
47069;SDS011;32822;48.140;7.702;2024-02-15T03:26:12;4.90;;;3.30;;
47069;SDS011;32822;48.140;7.702;2024-02-15T03:28:39;4.00;;;3.60;;
47069;SDS011;32822;48.140;7.702;2024-02-15T03:31:05;6.33;;;3.73;;
47069;SDS011;32822;48.140;7.702;2024-02-15T03:33:32;7.27;;;4.30;;
47069;SDS011;32822;48.140;7.702;2024-02-15T03:36:01;5.47;;;3.50;;
47069;SDS011;32822;48.140;7.702;2024-02-15T03:38:27;5.43;;;3.20;;
47069;SDS011;32822;48.140;7.702;2024-02-15T03:40:54;7.53;;;3.77;;
47069;SDS011;32822;48.140;7.702;2024-02-15T03:43:21;3.73;;;3.43;;
47069;SDS011;32822;48.140;7.702;2024-02-15T03:45:48;5.17;;;4.07;;
47069;SDS011;32822;48.140;7.702;2024-02-15T03:48:15;4.27;;;3.30;;
47069;SDS011;32822;48.140;7.702;2024-02-15T03:50:42;4.07;;;3.60;;
47069;SDS011;32822;48.140;7.702;2024-02-15T03:53:10;3.67;;;3.37;;
47069;SDS011;32822;48.140;7.702;2024-02-15T03:55:37;3.90;;;3.57;;
47069;SDS011;32822;48.140;7.702;2024-02-15T03:58:03;3.63;;;3.33;;
47069;SDS011;32822;48.140;7.702;2024-02-15T04:00:30;3.20;;;2.87;;
47069;SDS011;32822;48.140;7.702;2024-02-15T04:02:56;4.03;;;3.47;;
47069;SDS011;32822;48.140;7.702;2024-02-15T04:05:24;5.40;;;3.23;;
47069;SDS011;32822;48.140;7.702;2024-02-15T04:07:50;4.03;;;3.70;;
47069;SDS011;32822;48.140;7.702;2024-02-15T04:10:19;5.23;;;3.63;;
47069;SDS011;32822;48.140;7.702;2024-02-15T04:12:46;5.43;;;3.77;;
47069;SDS011;32822;48.140;7.702;2024-02-15T04:15:13;4.10;;;3.30;;
47069;SDS011;32822;48.140;7.702;2024-02-15T04:17:42;4.10;;;3.27;;
47069;SDS011;32822;48.140;7.702;2024-02-15T04:20:10;4.77;;;3.77;;
47069;SDS011;32822;48.140;7.702;2024-02-15T04:22:38;4.67;;;3.57;;
47069;SDS011;32822;48.140;7.702;2024-02-15T04:25:07;4.23;;;3.23;;
47069;SDS011;32822;48.140;7.702;2024-02-15T04:27:36;3.27;;;2.97;;
47069;SDS011;32822;48.140;7.702;2024-02-15T04:30:03;4.63;;;3.57;;
47069;SDS011;32822;48.140;7.702;2024-02-15T04:32:32;3.60;;;3.30;;
47069;SDS011;32822;48.140;7.702;2024-02-15T04:34:59;5.40;;;3.57;;
47069;SDS011;32822;48.140;7.702;2024-02-15T04:37:27;4.47;;;3.20;;
47069;SDS011;32822;48.140;7.702;2024-02-15T04:39:57;5.07;;;3.40;;
47069;SDS011;32822;48.140;7.702;2024-02-15T04:42:23;4.47;;;4.03;;
47069;SDS011;32822;48.140;7.702;2024-02-15T04:44:54;4.50;;;3.87;;
47069;SDS011;32822;48.140;7.702;2024-02-15T04:47:21;5.43;;;4.17;;
47069;SDS011;32822;48.140;7.702;2024-02-15T04:49:48;3.97;;;3.57;;
47069;SDS011;32822;48.140;7.702;2024-02-15T04:52:15;5.83;;;4.20;;
47069;SDS011;32822;48.140;7.702;2024-02-15T04:54:42;6.77;;;4.00;;
47069;SDS011;32822;48.140;7.702;2024-02-15T04:57:09;4.93;;;3.97;;
47069;SDS011;32822;48.140;7.702;2024-02-15T04:59:37;6.30;;;4.90;;
47069;SDS011;32822;48.140;7.702;2024-02-15T05:02:05;9.43;;;6.03;;
47069;SDS011;32822;48.140;7.702;2024-02-15T05:04:32;8.40;;;5.00;;
47069;SDS011;32822;48.140;7.702;2024-02-15T05:07:01;5.27;;;4.40;;
47069;SDS011;32822;48.140;7.702;2024-02-15T05:09:28;6.53;;;4.47;;
47069;SDS011;32822;48.140;7.702;2024-02-15T05:11:56;6.40;;;4.40;;
47069;SDS011;32822;48.140;7.702;2024-02-15T05:14:22;5.17;;;3.73;;
47069;SDS011;32822;48.140;7.702;2024-02-15T05:16:49;8.30;;;4.30;;
47069;SDS011;32822;48.140;7.702;2024-02-15T05:19:17;4.83;;;4.30;;
47069;SDS011;32822;48.140;7.702;2024-02-15T05:21:44;7.07;;;4.30;;
47069;SDS011;32822;48.140;7.702;2024-02-15T05:24:12;6.33;;;5.20;;
47069;SDS011;32822;48.140;7.702;2024-02-15T05:26:39;7.17;;;5.73;;
47069;SDS011;32822;48.140;7.702;2024-02-15T05:29:07;6.83;;;5.50;;
47069;SDS011;32822;48.140;7.702;2024-02-15T05:31:35;7.33;;;5.40;;
47069;SDS011;32822;48.140;7.702;2024-02-15T05:34:03;7.70;;;6.03;;
47069;SDS011;32822;48.140;7.702;2024-02-15T05:36:31;7.63;;;6.20;;
47069;SDS011;32822;48.140;7.702;2024-02-15T05:38:59;8.20;;;6.23;;
47069;SDS011;32822;48.140;7.702;2024-02-15T05:41:27;13.23;;;5.60;;
47069;SDS011;32822;48.140;7.702;2024-02-15T05:43:54;6.73;;;6.10;;
47069;SDS011;32822;48.140;7.702;2024-02-15T05:46:23;6.77;;;5.23;;
47069;SDS011;32822;48.140;7.702;2024-02-15T05:48:49;6.63;;;5.30;;
47069;SDS011;32822;48.140;7.702;2024-02-15T05:51:17;6.60;;;5.67;;
47069;SDS011;32822;48.140;7.702;2024-02-15T05:53:45;7.10;;;5.43;;
47069;SDS011;32822;48.140;7.702;2024-02-15T05:56:12;7.97;;;5.40;;
47069;SDS011;32822;48.140;7.702;2024-02-15T05:58:39;7.07;;;5.67;;
47069;SDS011;32822;48.140;7.702;2024-02-15T06:01:06;7.57;;;6.87;;
47069;SDS011;32822;48.140;7.702;2024-02-15T06:03:35;7.73;;;5.43;;
47069;SDS011;32822;48.140;7.702;2024-02-15T06:06:05;8.83;;;6.03;;
47069;SDS011;32822;48.140;7.702;2024-02-15T06:08:32;6.73;;;4.67;;
47069;SDS011;32822;48.140;7.702;2024-02-15T06:11:01;7.77;;;5.23;;
47069;SDS011;32822;48.140;7.702;2024-02-15T06:13:28;5.80;;;5.10;;
47069;SDS011;32822;48.140;7.702;2024-02-15T06:15:55;4.93;;;4.43;;
47069;SDS011;32822;48.140;7.702;2024-02-15T06:18:23;7.40;;;5.07;;
47069;SDS011;32822;48.140;7.702;2024-02-15T06:20:52;6.07;;;5.23;;
47069;SDS011;32822;48.140;7.702;2024-02-15T06:23:21;4.63;;;3.93;;
47069;SDS011;32822;48.140;7.702;2024-02-15T06:25:50;5.00;;;4.50;;
47069;SDS011;32822;48.140;7.702;2024-02-15T06:28:20;5.07;;;4.13;;
47069;SDS011;32822;48.140;7.702;2024-02-15T06:31:01;4.60;;;3.70;;
47069;SDS011;32822;48.140;7.702;2024-02-15T06:33:45;4.47;;;4.07;;
47069;SDS011;32822;48.140;7.702;2024-02-15T06:36:29;5.23;;;4.57;;
47069;SDS011;32822;48.140;7.702;2024-02-15T06:39:13;7.13;;;4.83;;
47069;SDS011;32822;48.140;7.702;2024-02-15T06:42:02;14.43;;;8.03;;
47069;SDS011;32822;48.140;7.702;2024-02-15T06:44:30;13.30;;;7.80;;
47069;SDS011;32822;48.140;7.702;2024-02-15T06:46:57;8.13;;;6.90;;
47069;SDS011;32822;48.140;7.702;2024-02-15T06:49:24;9.67;;;6.83;;
47069;SDS011;32822;48.140;7.702;2024-02-15T06:51:51;10.97;;;6.77;;
47069;SDS011;32822;48.140;7.702;2024-02-15T06:54:19;9.00;;;7.67;;
47069;SDS011;32822;48.140;7.702;2024-02-15T06:56:47;10.93;;;8.07;;
47069;SDS011;32822;48.140;7.702;2024-02-15T06:59:16;38.53;;;25.73;;
47069;SDS011;32822;48.140;7.702;2024-02-15T07:01:44;64.13;;;38.80;;
47069;SDS011;32822;48.140;7.702;2024-02-15T07:04:11;50.67;;;33.37;;
47069;SDS011;32822;48.140;7.702;2024-02-15T07:06:38;24.97;;;16.50;;
47069;SDS011;32822;48.140;7.702;2024-02-15T07:09:05;19.50;;;14.07;;
47069;SDS011;32822;48.140;7.702;2024-02-15T07:11:32;18.70;;;13.63;;
47069;SDS011;32822;48.140;7.702;2024-02-15T07:13:59;23.97;;;14.80;;
47069;SDS011;32822;48.140;7.702;2024-02-15T07:16:26;18.43;;;13.30;;
47069;SDS011;32822;48.140;7.702;2024-02-15T07:18:54;15.83;;;9.43;;
47069;SDS011;32822;48.140;7.702;2024-02-15T07:21:21;15.17;;;10.53;;
47069;SDS011;32822;48.140;7.702;2024-02-15T07:23:51;16.30;;;9.80;;
47069;SDS011;32822;48.140;7.702;2024-02-15T07:26:19;17.50;;;10.87;;
47069;SDS011;32822;48.140;7.702;2024-02-15T07:28:49;14.97;;;10.10;;
47069;SDS011;32822;48.140;7.702;2024-02-15T07:31:17;16.70;;;10.87;;
47069;SDS011;32822;48.140;7.702;2024-02-15T07:33:44;13.27;;;9.60;;
47069;SDS011;32822;48.140;7.702;2024-02-15T07:36:12;31.57;;;19.37;;
47069;SDS011;32822;48.140;7.702;2024-02-15T07:38:39;19.67;;;14.20;;
47069;SDS011;32822;48.140;7.702;2024-02-15T07:41:06;15.60;;;11.83;;
47069;SDS011;32822;48.140;7.702;2024-02-15T07:43:32;16.60;;;9.37;;
47069;SDS011;32822;48.140;7.702;2024-02-15T07:45:59;13.07;;;7.97;;
47069;SDS011;32822;48.140;7.702;2024-02-15T07:48:26;10.93;;;8.67;;
47069;SDS011;32822;48.140;7.702;2024-02-15T07:50:52;9.97;;;8.53;;
47069;SDS011;32822;48.140;7.702;2024-02-15T07:53:19;9.57;;;7.77;;
47069;SDS011;32822;48.140;7.702;2024-02-15T07:55:46;11.07;;;8.23;;
47069;SDS011;32822;48.140;7.702;2024-02-15T07:58:15;11.23;;;7.80;;
47069;SDS011;32822;48.140;7.702;2024-02-15T08:00:43;9.53;;;7.77;;
47069;SDS011;32822;48.140;7.702;2024-02-15T08:03:10;8.63;;;7.60;;
47069;SDS011;32822;48.140;7.702;2024-02-15T08:05:37;10.80;;;8.03;;
47069;SDS011;32822;48.140;7.702;2024-02-15T08:08:04;8.30;;;7.40;;
47069;SDS011;32822;48.140;7.702;2024-02-15T08:10:32;9.97;;;7.77;;
47069;SDS011;32822;48.140;7.702;2024-02-15T08:12:59;11.27;;;7.40;;
47069;SDS011;32822;48.140;7.702;2024-02-15T08:15:26;10.97;;;8.53;;
47069;SDS011;32822;48.140;7.702;2024-02-15T08:17:53;13.40;;;8.30;;
47069;SDS011;32822;48.140;7.702;2024-02-15T08:20:21;10.10;;;8.13;;
47069;SDS011;32822;48.140;7.702;2024-02-15T08:22:48;10.97;;;8.10;;
47069;SDS011;32822;48.140;7.702;2024-02-15T08:25:14;9.43;;;8.37;;
47069;SDS011;32822;48.140;7.702;2024-02-15T08:27:47;13.00;;;9.50;;
47069;SDS011;32822;48.140;7.702;2024-02-15T08:30:15;13.00;;;9.80;;
47069;SDS011;32822;48.140;7.702;2024-02-15T08:32:43;12.37;;;10.23;;
47069;SDS011;32822;48.140;7.702;2024-02-15T08:35:10;13.47;;;10.00;;
47069;SDS011;32822;48.140;7.702;2024-02-15T08:37:38;17.13;;;10.17;;
47069;SDS011;32822;48.140;7.702;2024-02-15T08:40:07;18.03;;;9.90;;
47069;SDS011;32822;48.140;7.702;2024-02-15T08:42:37;12.77;;;8.27;;
47069;SDS011;32822;48.140;7.702;2024-02-15T08:45:06;11.83;;;8.40;;
47069;SDS011;32822;48.140;7.702;2024-02-15T08:47:34;14.57;;;8.37;;
47069;SDS011;32822;48.140;7.702;2024-02-15T08:50:03;12.77;;;8.07;;
47069;SDS011;32822;48.140;7.702;2024-02-15T08:52:31;10.50;;;8.00;;
47069;SDS011;32822;48.140;7.702;2024-02-15T08:54:57;11.13;;;9.20;;
47069;SDS011;32822;48.140;7.702;2024-02-15T08:57:25;10.97;;;8.57;;
47069;SDS011;32822;48.140;7.702;2024-02-15T08:59:52;9.70;;;8.13;;
47069;SDS011;32822;48.140;7.702;2024-02-15T09:02:21;11.20;;;8.20;;
47069;SDS011;32822;48.140;7.702;2024-02-15T09:04:48;9.97;;;7.93;;
47069;SDS011;32822;48.140;7.702;2024-02-15T09:07:14;11.93;;;7.73;;
47069;SDS011;32822;48.140;7.702;2024-02-15T09:09:41;9.07;;;7.43;;
47069;SDS011;32822;48.140;7.702;2024-02-15T09:12:08;7.53;;;6.10;;
47069;SDS011;32822;48.140;7.702;2024-02-15T09:14:35;11.23;;;6.23;;
47069;SDS011;32822;48.140;7.702;2024-02-15T09:17:03;8.67;;;6.57;;
47069;SDS011;32822;48.140;7.702;2024-02-15T09:19:33;9.90;;;7.13;;
47069;SDS011;32822;48.140;7.702;2024-02-15T09:22:00;8.50;;;7.17;;
47069;SDS011;32822;48.140;7.702;2024-02-15T09:24:29;8.63;;;6.87;;
47069;SDS011;32822;48.140;7.702;2024-02-15T09:26:55;8.57;;;5.90;;
47069;SDS011;32822;48.140;7.702;2024-02-15T09:29:22;9.50;;;6.83;;
47069;SDS011;32822;48.140;7.702;2024-02-15T09:31:49;10.90;;;7.47;;
47069;SDS011;32822;48.140;7.702;2024-02-15T09:34:17;13.47;;;8.27;;
47069;SDS011;32822;48.140;7.702;2024-02-15T09:36:45;10.47;;;7.63;;
47069;SDS011;32822;48.140;7.702;2024-02-15T09:39:12;11.43;;;8.43;;
47069;SDS011;32822;48.140;7.702;2024-02-15T09:41:39;10.53;;;8.43;;
47069;SDS011;32822;48.140;7.702;2024-02-15T09:44:08;11.93;;;8.63;;
47069;SDS011;32822;48.140;7.702;2024-02-15T09:46:35;8.60;;;7.70;;
47069;SDS011;32822;48.140;7.702;2024-02-15T09:49:03;14.90;;;11.70;;
47069;SDS011;32822;48.140;7.702;2024-02-15T09:51:32;9.83;;;8.40;;
47069;SDS011;32822;48.140;7.702;2024-02-15T09:54:01;9.97;;;8.53;;
47069;SDS011;32822;48.140;7.702;2024-02-15T09:56:28;8.60;;;7.03;;
47069;SDS011;32822;48.140;7.702;2024-02-15T09:58:58;8.83;;;7.00;;
47069;SDS011;32822;48.140;7.702;2024-02-15T10:01:26;10.27;;;8.30;;
47069;SDS011;32822;48.140;7.702;2024-02-15T10:03:56;9.67;;;7.17;;
47069;SDS011;32822;48.140;7.702;2024-02-15T10:06:25;20.97;;;7.90;;
47069;SDS011;32822;48.140;7.702;2024-02-15T10:08:52;13.53;;;7.57;;
47069;SDS011;32822;48.140;7.702;2024-02-15T10:11:20;11.07;;;6.30;;
47069;SDS011;32822;48.140;7.702;2024-02-15T10:13:47;9.20;;;5.23;;
47069;SDS011;32822;48.140;7.702;2024-02-15T10:16:14;14.93;;;5.50;;
47069;SDS011;32822;48.140;7.702;2024-02-15T10:18:41;5.47;;;4.37;;
47069;SDS011;32822;48.140;7.702;2024-02-15T10:21:08;6.37;;;5.10;;
47069;SDS011;32822;48.140;7.702;2024-02-15T10:23:36;8.93;;;4.80;;
47069;SDS011;32822;48.140;7.702;2024-02-15T10:26:11;6.30;;;3.93;;
47069;SDS011;32822;48.140;7.702;2024-02-15T10:28:56;8.47;;;4.80;;
47069;SDS011;32822;48.140;7.702;2024-02-15T10:31:32;6.07;;;5.47;;
47069;SDS011;32822;48.140;7.702;2024-02-15T10:34:01;6.67;;;4.70;;
47069;SDS011;32822;48.140;7.702;2024-02-15T10:36:30;9.80;;;4.77;;
47069;SDS011;32822;48.140;7.702;2024-02-15T10:39:12;6.30;;;4.10;;
47069;SDS011;32822;48.140;7.702;2024-02-15T10:41:44;6.03;;;4.43;;
47069;SDS011;32822;48.140;7.702;2024-02-15T10:44:13;5.00;;;4.27;;
47069;SDS011;32822;48.140;7.702;2024-02-15T10:46:42;5.67;;;3.70;;
47069;SDS011;32822;48.140;7.702;2024-02-15T10:49:10;8.27;;;4.57;;
47069;SDS011;32822;48.140;7.702;2024-02-15T10:51:38;6.73;;;5.17;;
47069;SDS011;32822;48.140;7.702;2024-02-15T10:54:10;5.93;;;4.03;;
47069;SDS011;32822;48.140;7.702;2024-02-15T10:56:41;6.73;;;4.23;;
47069;SDS011;32822;48.140;7.702;2024-02-15T10:59:16;5.43;;;3.83;;
47069;SDS011;32822;48.140;7.702;2024-02-15T11:01:44;6.70;;;3.80;;
47069;SDS011;32822;48.140;7.702;2024-02-15T11:04:14;4.60;;;3.70;;
47069;SDS011;32822;48.140;7.702;2024-02-15T11:06:42;5.43;;;3.73;;
47069;SDS011;32822;48.140;7.702;2024-02-15T11:09:11;5.27;;;3.90;;
47069;SDS011;32822;48.140;7.702;2024-02-15T11:11:39;6.80;;;4.23;;
47069;SDS011;32822;48.140;7.702;2024-02-15T11:16:56;6.10;;;4.40;;
47069;SDS011;32822;48.140;7.702;2024-02-15T11:19:44;6.40;;;3.33;;
47069;SDS011;32822;48.140;7.702;2024-02-15T11:22:12;4.77;;;4.23;;
47069;SDS011;32822;48.140;7.702;2024-02-15T11:24:46;7.67;;;4.10;;
47069;SDS011;32822;48.140;7.702;2024-02-15T11:27:23;4.03;;;3.63;;
47069;SDS011;32822;48.140;7.702;2024-02-15T11:29:54;8.47;;;4.47;;
47069;SDS011;32822;48.140;7.702;2024-02-15T11:32:36;5.37;;;4.20;;
47069;SDS011;32822;48.140;7.702;2024-02-15T11:35:05;7.90;;;5.20;;
47069;SDS011;32822;48.140;7.702;2024-02-15T11:37:49;5.93;;;3.90;;
47069;SDS011;32822;48.140;7.702;2024-02-15T11:40:18;5.73;;;3.90;;
47069;SDS011;32822;48.140;7.702;2024-02-15T11:42:47;7.50;;;4.07;;
47069;SDS011;32822;48.140;7.702;2024-02-15T11:45:17;4.37;;;3.77;;
47069;SDS011;32822;48.140;7.702;2024-02-15T11:47:46;7.53;;;3.80;;
47069;SDS011;32822;48.140;7.702;2024-02-15T11:50:15;5.83;;;3.60;;
47069;SDS011;32822;48.140;7.702;2024-02-15T11:52:43;4.90;;;3.70;;
47069;SDS011;32822;48.140;7.702;2024-02-15T11:55:11;7.53;;;4.40;;
47069;SDS011;32822;48.140;7.702;2024-02-15T11:57:38;5.67;;;3.80;;
47069;SDS011;32822;48.140;7.702;2024-02-15T12:00:20;6.00;;;3.80;;
47069;SDS011;32822;48.140;7.702;2024-02-15T12:03:05;7.97;;;3.87;;
47069;SDS011;32822;48.140;7.702;2024-02-15T12:05:50;5.67;;;4.17;;
47069;SDS011;32822;48.140;7.702;2024-02-15T12:08:34;4.17;;;3.40;;
47069;SDS011;32822;48.140;7.702;2024-02-15T12:11:19;7.17;;;4.00;;
47069;SDS011;32822;48.140;7.702;2024-02-15T12:14:03;6.60;;;4.10;;
47069;SDS011;32822;48.140;7.702;2024-02-15T12:16:59;5.53;;;3.90;;
47069;SDS011;32822;48.140;7.702;2024-02-15T12:19:44;5.03;;;3.80;;
47069;SDS011;32822;48.140;7.702;2024-02-15T12:22:11;4.93;;;4.30;;
47069;SDS011;32822;48.140;7.702;2024-02-15T12:24:38;4.57;;;3.87;;
47069;SDS011;32822;48.140;7.702;2024-02-15T12:27:05;5.60;;;4.03;;
47069;SDS011;32822;48.140;7.702;2024-02-15T12:29:32;5.80;;;3.90;;
47069;SDS011;32822;48.140;7.702;2024-02-15T12:32:01;5.63;;;4.37;;
47069;SDS011;32822;48.140;7.702;2024-02-15T12:34:28;6.47;;;4.03;;
47069;SDS011;32822;48.140;7.702;2024-02-15T12:37:04;5.93;;;4.20;;
47069;SDS011;32822;48.140;7.702;2024-02-15T12:39:31;4.73;;;3.97;;
47069;SDS011;32822;48.140;7.702;2024-02-15T12:41:58;7.40;;;3.97;;
47069;SDS011;32822;48.140;7.702;2024-02-15T12:44:26;7.07;;;4.53;;
47069;SDS011;32822;48.140;7.702;2024-02-15T12:46:57;6.10;;;4.13;;
47069;SDS011;32822;48.140;7.702;2024-02-15T12:49:29;4.83;;;4.33;;
47069;SDS011;32822;48.140;7.702;2024-02-15T12:55:09;6.60;;;4.40;;
47069;SDS011;32822;48.140;7.702;2024-02-15T12:57:37;7.63;;;5.13;;
47069;SDS011;32822;48.140;7.702;2024-02-15T13:00:06;6.87;;;5.13;;
47069;SDS011;32822;48.140;7.702;2024-02-15T13:02:39;7.37;;;4.80;;
47069;SDS011;32822;48.140;7.702;2024-02-15T13:05:07;8.03;;;4.93;;
47069;SDS011;32822;48.140;7.702;2024-02-15T13:07:35;6.77;;;4.77;;
47069;SDS011;32822;48.140;7.702;2024-02-15T13:10:02;5.73;;;4.43;;
47069;SDS011;32822;48.140;7.702;2024-02-15T13:12:32;7.83;;;4.50;;
47069;SDS011;32822;48.140;7.702;2024-02-15T13:14:59;7.67;;;4.60;;
47069;SDS011;32822;48.140;7.702;2024-02-15T13:17:28;7.10;;;4.60;;
47069;SDS011;32822;48.140;7.702;2024-02-15T13:19:55;8.83;;;5.27;;
47069;SDS011;32822;48.140;7.702;2024-02-15T13:22:30;7.37;;;4.20;;
47069;SDS011;32822;48.140;7.702;2024-02-15T13:24:58;8.63;;;4.33;;
47069;SDS011;32822;48.140;7.702;2024-02-15T13:27:24;7.70;;;4.97;;
47069;SDS011;32822;48.140;7.702;2024-02-15T13:29:51;6.47;;;4.90;;
47069;SDS011;32822;48.140;7.702;2024-02-15T13:32:18;7.40;;;4.40;;
47069;SDS011;32822;48.140;7.702;2024-02-15T13:34:46;6.27;;;5.00;;
47069;SDS011;32822;48.140;7.702;2024-02-15T13:37:16;7.30;;;5.17;;
47069;SDS011;32822;48.140;7.702;2024-02-15T13:39:46;6.47;;;3.83;;
47069;SDS011;32822;48.140;7.702;2024-02-15T13:42:13;6.23;;;4.07;;
47069;SDS011;32822;48.140;7.702;2024-02-15T13:44:41;5.03;;;4.40;;
47069;SDS011;32822;48.140;7.702;2024-02-15T13:47:08;6.60;;;4.37;;
47069;SDS011;32822;48.140;7.702;2024-02-15T13:49:36;8.30;;;4.70;;
47069;SDS011;32822;48.140;7.702;2024-02-15T13:52:04;8.77;;;4.77;;
47069;SDS011;32822;48.140;7.702;2024-02-15T13:54:31;7.17;;;5.07;;
47069;SDS011;32822;48.140;7.702;2024-02-15T13:56:59;5.27;;;4.13;;
47069;SDS011;32822;48.140;7.702;2024-02-15T13:59:27;5.80;;;3.90;;
47069;SDS011;32822;48.140;7.702;2024-02-15T14:01:54;7.80;;;4.63;;
47069;SDS011;32822;48.140;7.702;2024-02-15T14:04:21;8.20;;;5.10;;
47069;SDS011;32822;48.140;7.702;2024-02-15T14:06:48;6.93;;;5.50;;
47069;SDS011;32822;48.140;7.702;2024-02-15T14:09:15;6.70;;;5.17;;
47069;SDS011;32822;48.140;7.702;2024-02-15T14:11:42;4.37;;;3.53;;
47069;SDS011;32822;48.140;7.702;2024-02-15T14:14:11;4.17;;;2.93;;
47069;SDS011;32822;48.140;7.702;2024-02-15T14:16:37;5.03;;;3.60;;
47069;SDS011;32822;48.140;7.702;2024-02-15T14:19:05;4.77;;;3.83;;
47069;SDS011;32822;48.140;7.702;2024-02-15T14:21:32;5.53;;;3.63;;
47069;SDS011;32822;48.140;7.702;2024-02-15T14:24:04;5.90;;;3.23;;
47069;SDS011;32822;48.140;7.702;2024-02-15T14:26:33;9.40;;;3.50;;
47069;SDS011;32822;48.140;7.702;2024-02-15T14:29:00;3.37;;;2.80;;
47069;SDS011;32822;48.140;7.702;2024-02-15T14:31:29;3.53;;;3.10;;
47069;SDS011;32822;48.140;7.702;2024-02-15T14:34:14;6.77;;;3.53;;
47069;SDS011;32822;48.140;7.702;2024-02-15T14:36:42;4.83;;;3.67;;
47069;SDS011;32822;48.140;7.702;2024-02-15T14:39:10;5.43;;;3.10;;
47069;SDS011;32822;48.140;7.702;2024-02-15T14:41:38;4.83;;;3.33;;
47069;SDS011;32822;48.140;7.702;2024-02-15T14:44:05;4.03;;;3.27;;
47069;SDS011;32822;48.140;7.702;2024-02-15T14:46:33;4.30;;;3.03;;
47069;SDS011;32822;48.140;7.702;2024-02-15T14:49:00;6.73;;;3.00;;
47069;SDS011;32822;48.140;7.702;2024-02-15T14:51:29;4.57;;;3.27;;
47069;SDS011;32822;48.140;7.702;2024-02-15T14:53:57;15.60;;;10.07;;
47069;SDS011;32822;48.140;7.702;2024-02-15T14:56:24;6.60;;;4.10;;
47069;SDS011;32822;48.140;7.702;2024-02-15T14:58:51;3.90;;;3.17;;
47069;SDS011;32822;48.140;7.702;2024-02-15T15:01:18;6.30;;;3.90;;